createdAt,value
2022-07-29T00:01:46.174Z,1.25
2022-07-29T00:04:15.389Z,1.20
2022-07-29T00:06:44.172Z,1.15
2022-07-29T00:09:12.742Z,1.50
2022-07-29T00:11:41.561Z,1.55
2022-07-29T00:14:10.118Z,1.35
2022-07-29T00:16:40.605Z,1.40
2022-07-29T00:19:09.269Z,1.23
2022-07-29T00:21:39.870Z,1.40
2022-07-29T00:24:09.000Z,1.38
2022-07-29T00:26:38.263Z,1.40
2022-07-29T00:29:33.007Z,1.40
2022-07-29T00:31:57.192Z,1.70
2022-07-29T00:34:43.429Z,1.27
2022-07-29T00:37:11.839Z,1.40
2022-07-29T00:39:40.422Z,1.55
2022-07-29T00:42:09.729Z,1.20
2022-07-29T00:44:41.746Z,1.40
2022-07-29T00:47:14.097Z,1.40
2022-07-29T00:49:43.285Z,1.08
2022-07-29T00:52:13.719Z,1.23
2022-07-29T00:54:45.751Z,1.17
2022-07-29T00:57:15.006Z,1.30
2022-07-29T00:59:43.504Z,2.05
2022-07-29T01:02:14.134Z,1.33
2022-07-29T01:04:43.585Z,1.48
2022-07-29T01:07:12.669Z,1.27
2022-07-29T01:09:45.315Z,1.35
2022-07-29T01:12:17.701Z,1.45
2022-07-29T01:14:47.621Z,1.20
2022-07-29T01:17:23.412Z,1.50
2022-07-29T01:20:00.597Z,1.65
2022-07-29T01:22:39.788Z,1.33
2022-07-29T01:25:29.217Z,1.55
2022-07-29T01:28:19.970Z,1.27
2022-07-29T01:30:56.368Z,1.10
2022-07-29T01:33:45.179Z,1.40
2022-07-29T01:36:17.152Z,1.17
2022-07-29T01:38:51.485Z,1.50
2022-07-29T01:41:23.798Z,1.30
2022-07-29T01:43:57.136Z,1.48
2022-07-29T01:46:33.745Z,1.60
2022-07-29T01:49:11.384Z,1.10
2022-07-29T01:51:48.726Z,1.15
2022-07-29T01:54:22.758Z,1.48
2022-07-29T01:56:55.842Z,1.10
2022-07-29T01:59:26.141Z,1.23
2022-07-29T02:02:00.324Z,1.17
2022-07-29T02:04:31.602Z,1.20
2022-07-29T02:07:04.102Z,0.95
2022-07-29T02:09:34.343Z,1.55
2022-07-29T02:12:04.466Z,1.33
2022-07-29T02:14:36.944Z,1.33
2022-07-29T02:17:07.309Z,1.17
2022-07-29T02:19:36.728Z,1.20
2022-07-29T02:22:07.601Z,1.00
2022-07-29T02:24:38.208Z,1.23
2022-07-29T02:27:07.304Z,1.20
2022-07-29T02:29:37.230Z,1.17
2022-07-29T02:32:10.834Z,1.20
2022-07-29T02:34:42.409Z,1.20
2022-07-29T02:37:12.494Z,1.17
2022-07-29T02:39:43.657Z,1.30
2022-07-29T02:42:16.072Z,1.40
2022-07-29T02:44:45.300Z,1.10
2022-07-29T02:47:21.510Z,1.75
2022-07-29T02:49:57.699Z,1.27
2022-07-29T02:52:32.901Z,1.30
2022-07-29T02:55:09.902Z,1.20
2022-07-29T02:57:54.119Z,1.30
2022-07-29T03:00:25.990Z,1.10
2022-07-29T03:02:59.732Z,1.30
2022-07-29T03:05:29.110Z,1.10
2022-07-29T03:08:01.190Z,1.13
2022-07-29T03:10:30.856Z,1.55
2022-07-29T03:13:00.169Z,1.20
2022-07-29T03:15:29.873Z,1.25
2022-07-29T03:18:01.202Z,1.30
2022-07-29T03:20:29.777Z,1.13
2022-07-29T03:22:58.338Z,1.35
2022-07-29T03:25:28.248Z,1.50
2022-07-29T03:27:57.948Z,1.17
2022-07-29T03:30:26.520Z,1.30
2022-07-29T03:32:58.114Z,1.45
2022-07-29T03:35:28.953Z,1.17
2022-07-29T03:37:57.386Z,1.45
2022-07-29T03:40:30.150Z,1.10
2022-07-29T03:43:00.512Z,1.37
2022-07-29T03:45:31.616Z,1.20
2022-07-29T03:48:04.271Z,1.15
2022-07-29T03:50:36.518Z,1.45
2022-07-29T03:53:05.688Z,1.17
2022-07-29T03:55:43.637Z,1.40
2022-07-29T03:58:14.942Z,1.27
2022-07-29T04:00:45.169Z,1.35
2022-07-29T04:03:15.906Z,1.30
2022-07-29T04:05:46.055Z,1.08
2022-07-29T04:08:14.572Z,1.23
2022-07-29T04:10:43.093Z,1.48
2022-07-29T04:13:11.669Z,1.90
2022-07-29T04:15:40.219Z,1.20
2022-07-29T04:18:09.025Z,1.45
2022-07-29T04:20:37.493Z,1.80
2022-07-29T04:23:07.370Z,1.90
2022-07-29T04:25:36.286Z,1.50
2022-07-29T04:28:05.070Z,1.77
2022-07-29T04:30:35.032Z,1.60
2022-07-29T04:33:04.768Z,1.65
2022-07-29T04:35:38.124Z,1.75
2022-07-29T04:40:45.720Z,1.88
2022-07-29T04:43:16.117Z,1.85
2022-07-29T04:45:45.036Z,2.22
2022-07-29T04:48:13.529Z,1.83
2022-07-29T04:50:43.272Z,2.05
2022-07-29T04:53:13.397Z,1.95
2022-07-29T04:55:41.795Z,1.40
2022-07-29T04:58:10.542Z,2.10
2022-07-29T05:00:39.131Z,1.73
2022-07-29T05:03:08.082Z,1.70
2022-07-29T05:05:37.222Z,1.90
2022-07-29T05:08:06.133Z,2.05
2022-07-29T05:10:39.489Z,1.60
2022-07-29T05:13:08.762Z,1.80
2022-07-29T05:15:37.846Z,2.50
2022-07-29T05:18:07.043Z,1.90
2022-07-29T05:20:36.090Z,1.92
2022-07-29T05:23:04.864Z,1.80
2022-07-29T05:25:42.931Z,1.98
2022-07-29T05:28:14.812Z,1.88
2022-07-29T05:30:43.727Z,2.28
2022-07-29T05:33:34.663Z,1.80
2022-07-29T05:36:01.272Z,1.90
2022-07-29T05:38:30.379Z,2.30
2022-07-29T05:41:00.381Z,2.08
2022-07-29T05:43:30.704Z,1.70
2022-07-29T05:45:59.481Z,1.52
2022-07-29T05:48:28.255Z,1.75
2022-07-29T05:50:57.703Z,1.90
2022-07-29T05:53:26.497Z,1.70
2022-07-29T05:55:55.216Z,1.60
2022-07-29T05:58:23.792Z,1.77
2022-07-29T06:00:53.966Z,1.75
2022-07-29T06:03:22.769Z,2.65
2022-07-29T06:05:51.238Z,1.50
2022-07-29T06:08:19.997Z,1.83
2022-07-29T06:10:48.513Z,1.45
2022-07-29T06:13:17.533Z,1.70
2022-07-29T06:15:46.525Z,2.25
2022-07-29T06:18:16.625Z,1.15
2022-07-29T06:20:45.136Z,1.17
2022-07-29T06:23:13.720Z,1.90
2022-07-29T06:25:43.104Z,1.33
2022-07-29T06:28:12.176Z,1.15
2022-07-29T06:30:40.762Z,1.45
2022-07-29T06:33:09.495Z,1.60
2022-07-29T06:35:42.305Z,1.70
2022-07-29T06:38:29.898Z,1.45
2022-07-29T06:41:06.409Z,1.30
2022-07-29T06:43:50.349Z,1.42
2022-07-29T06:46:22.351Z,2.00
2022-07-29T06:48:51.600Z,1.00
2022-07-29T06:51:23.886Z,1.50
2022-07-29T06:54:00.141Z,1.45
2022-07-29T06:56:39.572Z,1.40
2022-07-29T06:59:09.863Z,1.70
2022-07-29T07:01:39.379Z,1.80
2022-07-29T07:04:10.058Z,1.38
2022-07-29T07:06:40.419Z,1.90
2022-07-29T07:09:09.618Z,1.60
2022-07-29T07:11:38.118Z,1.50
2022-07-29T07:14:06.589Z,1.20
2022-07-29T07:16:35.568Z,1.58
2022-07-29T07:19:04.123Z,2.30
2022-07-29T07:21:32.629Z,1.30
2022-07-29T07:24:03.193Z,1.50
2022-07-29T07:26:31.935Z,1.40
2022-07-29T07:29:01.535Z,1.50
2022-07-29T07:31:30.503Z,1.48
2022-07-29T07:34:00.186Z,1.50
2022-07-29T07:36:28.649Z,1.25
2022-07-29T07:38:57.510Z,1.23
2022-07-29T07:41:27.886Z,1.58
2022-07-29T07:44:01.370Z,1.30
2022-07-29T07:46:29.933Z,1.52
2022-07-29T07:48:58.466Z,1.30
2022-07-29T07:51:27.261Z,1.20
2022-07-29T07:53:55.668Z,1.38
2022-07-29T07:56:31.919Z,5.45
2022-07-29T07:59:03.340Z,2.45
2022-07-29T08:01:47.898Z,2.30
2022-07-29T08:04:26.588Z,2.05
2022-07-29T08:06:56.461Z,1.30
2022-07-29T08:09:30.358Z,1.67
2022-07-29T08:12:03.454Z,1.38
2022-07-29T08:14:33.101Z,1.30
2022-07-29T08:17:02.778Z,1.48
2022-07-29T08:19:31.261Z,1.25
2022-07-29T08:21:59.710Z,1.40
2022-07-29T08:24:53.406Z,1.73
2022-07-29T08:27:42.845Z,1.35
2022-07-29T08:30:13.318Z,1.48
2022-07-29T08:32:53.597Z,1.52
2022-07-29T08:35:22.692Z,1.42
2022-07-29T08:37:51.715Z,1.70
2022-07-29T08:40:20.372Z,1.33
2022-07-29T08:43:06.462Z,1.38
2022-07-29T08:45:48.130Z,1.42
2022-07-29T08:48:18.168Z,1.60
2022-07-29T08:50:48.932Z,1.63
2022-07-29T08:53:19.573Z,1.77
2022-07-29T08:55:50.662Z,1.45
2022-07-29T08:58:23.225Z,1.38
2022-07-29T09:00:56.682Z,2.00
2022-07-29T09:03:28.218Z,1.83
2022-07-29T09:05:56.981Z,1.48
2022-07-29T09:08:26.220Z,1.42
2022-07-29T09:10:57.189Z,1.50
2022-07-29T09:13:27.393Z,1.30
2022-07-29T09:15:55.967Z,1.52
2022-07-29T09:18:46.169Z,1.42
2022-07-29T09:21:33.233Z,1.52
2022-07-29T09:24:08.212Z,1.40
2022-07-29T09:26:38.837Z,1.27
2022-07-29T09:29:13.686Z,1.20
2022-07-29T09:31:45.209Z,1.42
2022-07-29T09:34:15.746Z,1.70
2022-07-29T09:36:45.932Z,1.50
2022-07-29T09:39:15.638Z,4.95
2022-07-29T09:41:51.484Z,2.05
2022-07-29T09:44:21.991Z,2.03
2022-07-29T09:46:59.243Z,1.60
2022-07-29T09:49:28.362Z,1.77
2022-07-29T09:52:08.909Z,1.92
2022-07-29T09:54:41.587Z,1.40
2022-07-29T09:57:13.781Z,2.08
2022-07-29T09:59:59.163Z,1.77
2022-07-29T10:02:32.942Z,1.98
2022-07-29T10:05:02.256Z,2.20
2022-07-29T10:07:50.581Z,1.80
2022-07-29T10:10:24.367Z,2.05
2022-07-29T10:12:55.173Z,1.67
2022-07-29T10:15:27.218Z,2.17
2022-07-29T10:17:57.631Z,1.92
2022-07-29T10:20:27.457Z,1.77
2022-07-29T10:22:57.002Z,1.80
2022-07-29T10:25:26.980Z,2.13
2022-07-29T10:27:56.734Z,1.70
2022-07-29T10:30:28.899Z,1.85
2022-07-29T10:33:18.147Z,1.75
2022-07-29T10:35:57.056Z,1.92
2022-07-29T10:38:48.226Z,1.60
2022-07-29T10:41:44.198Z,1.63
2022-07-29T10:44:19.168Z,1.73
2022-07-29T10:46:49.848Z,1.83
2022-07-29T10:49:19.607Z,2.47
2022-07-29T10:52:01.253Z,3.38
2022-07-29T10:54:48.684Z,1.83
2022-07-29T10:57:26.006Z,1.80
2022-07-29T11:03:01.430Z,2.30
2022-07-29T11:05:59.757Z,2.20
2022-07-29T11:08:28.941Z,2.40
2022-07-29T11:11:44.010Z,2.72
2022-07-29T11:14:26.622Z,2.33
2022-07-29T11:17:07.586Z,2.42
2022-07-29T11:19:45.698Z,2.75
2022-07-29T11:22:36.247Z,2.70
2022-07-29T11:25:50.444Z,2.80
2022-07-29T11:28:22.707Z,2.15
2022-07-29T11:30:56.224Z,2.22
2022-07-29T11:33:54.526Z,2.55
2022-07-29T11:36:27.793Z,2.40
2022-07-29T11:39:36.662Z,2.60
2022-07-29T11:42:47.789Z,2.67
2022-07-29T11:45:42.563Z,2.33
2022-07-29T11:48:29.222Z,2.22
2022-07-29T11:51:00.927Z,2.10
2022-07-29T11:53:32.611Z,2.33
2022-07-29T11:56:03.708Z,2.40
2022-07-29T11:58:33.036Z,2.30
2022-07-29T12:01:05.065Z,2.58
2022-07-29T12:03:36.979Z,2.63
2022-07-29T12:09:14.579Z,3.30
2022-07-29T12:11:44.964Z,2.75
2022-07-29T12:14:28.798Z,1.75
2022-07-29T12:16:57.507Z,2.30
2022-07-29T12:19:27.327Z,1.90
2022-07-29T12:21:59.769Z,1.92
2022-07-29T12:24:45.542Z,2.08
2022-07-29T12:27:19.511Z,2.20
2022-07-29T12:30:00.802Z,1.90
2022-07-29T12:32:34.789Z,2.22
2022-07-29T12:35:07.037Z,2.03
2022-07-29T12:37:41.111Z,2.13
2022-07-29T12:40:15.094Z,2.10
2022-07-29T12:42:43.544Z,1.95
2022-07-29T12:45:12.670Z,2.28
2022-07-29T12:47:54.604Z,1.90
2022-07-29T12:50:26.305Z,1.67
2022-07-29T12:52:54.965Z,2.30
2022-07-29T12:55:43.333Z,2.13
2022-07-29T12:58:12.377Z,2.10
2022-07-29T13:00:41.133Z,2.13
2022-07-29T13:03:09.661Z,3.17
2022-07-29T13:05:48.872Z,2.80
2022-07-29T13:08:21.988Z,4.05
2022-07-29T13:13:20.691Z,2.13
2022-07-29T13:16:07.310Z,2.33
2022-07-29T13:18:37.660Z,1.92
2022-07-29T13:21:14.821Z,2.05
2022-07-29T13:23:44.087Z,1.98
2022-07-29T13:26:14.541Z,2.08
2022-07-29T13:28:44.286Z,2.20
2022-07-29T13:31:13.545Z,2.05
2022-07-29T13:33:42.029Z,1.88
2022-07-29T13:36:11.077Z,1.90
2022-07-29T13:38:39.713Z,1.73
2022-07-29T13:41:08.482Z,1.60
2022-07-29T13:43:38.337Z,2.10
2022-07-29T13:46:07.259Z,1.73
2022-07-29T13:48:35.832Z,2.00
2022-07-29T13:51:04.416Z,8.25
2022-07-29T13:53:34.076Z,3.13
2022-07-29T13:56:02.808Z,2.90
2022-07-29T13:58:31.349Z,2.95
2022-07-29T14:01:01.833Z,1.40
2022-07-29T14:03:30.938Z,1.42
2022-07-29T14:06:01.305Z,1.88
2022-07-29T14:08:29.865Z,1.80
2022-07-29T14:10:58.264Z,1.60
2022-07-29T14:13:26.905Z,1.70
2022-07-29T14:15:55.737Z,1.70
2022-07-29T14:18:25.941Z,1.65
2022-07-29T14:20:54.755Z,1.90
2022-07-29T14:23:23.185Z,1.85
2022-07-29T14:25:51.895Z,1.88
2022-07-29T14:28:22.030Z,2.17
2022-07-29T14:30:50.571Z,1.70
2022-07-29T14:33:19.669Z,2.03
2022-07-29T14:35:49.872Z,3.08
2022-07-29T14:38:18.485Z,1.95
2022-07-29T14:40:47.703Z,2.15
2022-07-29T14:43:19.731Z,1.90
2022-07-29T14:45:50.586Z,1.92
2022-07-29T14:48:19.711Z,2.13
2022-07-29T14:50:49.821Z,2.00
2022-07-29T14:53:18.262Z,1.90
2022-07-29T14:55:47.361Z,1.70
2022-07-29T14:58:16.652Z,2.53
2022-07-29T15:00:45.460Z,1.92
2022-07-29T15:03:24.055Z,1.85
2022-07-29T15:05:54.348Z,1.98
2022-07-29T15:08:23.717Z,2.10
2022-07-29T15:10:52.578Z,2.13
2022-07-29T15:13:21.171Z,2.05
2022-07-29T15:15:50.379Z,2.33
2022-07-29T15:18:25.453Z,2.17
2022-07-29T15:20:56.197Z,1.85
2022-07-29T15:23:24.829Z,2.30
2022-07-29T15:25:53.286Z,2.42
2022-07-29T15:28:21.741Z,2.60
2022-07-29T15:30:50.325Z,2.45
2022-07-29T15:33:18.952Z,2.80
2022-07-29T15:35:47.422Z,2.20
2022-07-29T15:38:18.476Z,2.25
2022-07-29T15:40:47.665Z,2.38
2022-07-29T15:43:16.560Z,2.42
2022-07-29T15:46:06.589Z,2.88
2022-07-29T15:48:35.401Z,3.10
2022-07-29T15:51:03.779Z,2.45
2022-07-29T15:53:35.300Z,2.58
2022-07-29T15:56:04.688Z,2.70
2022-07-29T15:58:33.097Z,2.42
2022-07-29T16:01:01.618Z,2.67
2022-07-29T16:03:31.847Z,2.72
2022-07-29T16:06:00.410Z,3.30
2022-07-29T16:08:28.937Z,3.83
2022-07-29T16:10:58.850Z,3.05
2022-07-29T16:13:27.285Z,3.15
2022-07-29T16:16:02.618Z,3.05
2022-07-29T16:18:31.573Z,3.30
2022-07-29T16:21:00.434Z,3.10
2022-07-29T16:23:29.042Z,4.10
2022-07-29T16:26:00.811Z,4.07
2022-07-29T16:28:29.850Z,3.20
2022-07-29T16:30:58.412Z,3.20
2022-07-29T16:33:27.918Z,3.10
2022-07-29T16:35:56.549Z,3.10
2022-07-29T16:38:25.054Z,3.20
2022-07-29T16:40:53.978Z,2.63
2022-07-29T16:43:23.841Z,3.40
2022-07-29T16:45:52.386Z,3.10
2022-07-29T16:48:20.912Z,3.47
2022-07-29T16:50:52.001Z,3.70
2022-07-29T16:53:20.676Z,3.90
2022-07-29T16:55:49.211Z,3.58
2022-07-29T16:58:17.625Z,3.53
2022-07-29T17:00:47.589Z,3.55
2022-07-29T17:03:16.134Z,3.08
2022-07-29T17:05:52.526Z,5.68
2022-07-29T17:08:23.292Z,5.10
2022-07-29T17:10:51.969Z,4.45
2022-07-29T17:13:21.229Z,3.38
2022-07-29T17:15:51.652Z,2.72
2022-07-29T17:18:20.312Z,4.03
2022-07-29T17:20:48.870Z,3.92
2022-07-29T17:23:17.259Z,2.70
2022-07-29T17:25:45.790Z,2.78
2022-07-29T17:28:14.570Z,2.58
2022-07-29T17:30:43.128Z,2.80
2022-07-29T17:33:13.440Z,2.90
2022-07-29T17:35:58.898Z,2.55
2022-07-29T17:38:27.337Z,2.83
2022-07-29T17:40:56.568Z,2.90
2022-07-29T17:43:25.044Z,2.30
2022-07-29T17:45:55.875Z,2.28
2022-07-29T17:48:29.525Z,2.30
2022-07-29T17:50:58.488Z,2.20
2022-07-29T17:53:26.942Z,2.17
2022-07-29T17:55:56.419Z,2.40
2022-07-29T17:58:24.906Z,3.03
2022-07-29T18:00:53.940Z,2.15
2022-07-29T18:03:22.829Z,3.10
2022-07-29T18:05:52.861Z,2.28
2022-07-29T18:08:21.330Z,2.50
2022-07-29T18:10:50.113Z,2.13
2022-07-29T18:13:18.795Z,2.30
2022-07-29T18:15:48.032Z,2.58
2022-07-29T18:18:18.493Z,2.75
2022-07-29T18:20:47.583Z,2.35
2022-07-29T18:23:17.809Z,2.33
2022-07-29T18:25:46.602Z,2.75
2022-07-29T18:28:15.041Z,2.20
2022-07-29T18:30:43.553Z,2.42
2022-07-29T18:33:23.015Z,2.78
2022-07-29T18:36:11.061Z,6.55
2022-07-29T18:38:42.044Z,1.55
2022-07-29T18:41:10.626Z,1.75
2022-07-29T18:43:39.186Z,1.92
2022-07-29T18:46:07.832Z,1.90
2022-07-29T18:48:36.602Z,1.95
2022-07-29T18:51:09.480Z,1.60
2022-07-29T18:53:38.498Z,1.88
2022-07-29T18:56:08.591Z,2.20
2022-07-29T18:58:38.420Z,1.73
2022-07-29T19:01:07.361Z,1.88
2022-07-29T19:03:36.250Z,1.95
2022-07-29T19:06:04.939Z,1.90
2022-07-29T19:08:33.527Z,2.20
2022-07-29T19:11:02.069Z,1.98
2022-07-29T19:13:32.222Z,2.00
2022-07-29T19:16:00.992Z,2.00
2022-07-29T19:18:29.820Z,2.33
2022-07-29T19:20:58.402Z,1.73
2022-07-29T19:23:26.970Z,1.90
2022-07-29T19:25:55.349Z,1.50
2022-07-29T19:28:24.104Z,1.20
2022-07-29T19:30:54.905Z,1.63
2022-07-29T19:33:23.425Z,1.15
2022-07-29T19:35:55.003Z,1.30
2022-07-29T19:38:24.275Z,1.20
2022-07-29T19:40:53.083Z,0.93
2022-07-29T19:43:50.378Z,1.02
2022-07-29T19:46:11.753Z,1.00
2022-07-29T19:48:40.493Z,1.33
2022-07-29T19:51:09.256Z,0.90
2022-07-29T19:53:37.870Z,1.10
2022-07-29T19:56:07.217Z,0.93
2022-07-29T19:58:37.512Z,0.93
2022-07-29T20:01:10.780Z,1.10
2022-07-29T20:12:23.288Z,0.80
2022-07-29T20:20:16.056Z,0.70
2022-07-29T20:22:47.875Z,0.70
2022-07-29T20:40:26.177Z,0.73
2022-07-29T20:42:54.874Z,0.88
2022-07-29T20:45:25.620Z,0.80
2022-07-29T20:47:54.668Z,0.60
2022-07-29T20:56:59.735Z,0.80
2022-07-29T20:59:31.271Z,0.80
2022-07-29T21:02:00.965Z,0.80
2022-07-29T21:04:32.778Z,0.75
2022-07-29T21:07:03.073Z,0.85
2022-07-29T21:09:34.193Z,0.73
2022-07-29T21:12:06.344Z,0.80
2022-07-29T21:14:48.970Z,0.80
2022-07-29T21:17:25.946Z,0.70
2022-07-29T21:19:59.410Z,0.98
2022-07-29T21:22:29.613Z,0.77
2022-07-29T21:25:00.328Z,0.80
2022-07-29T21:31:06.647Z,1.10
2022-07-29T21:33:35.537Z,1.13
2022-07-29T21:38:54.485Z,0.90
2022-07-29T21:41:22.889Z,0.80
2022-07-29T21:43:52.763Z,0.70
2022-07-29T21:46:24.549Z,0.80
2022-07-29T21:48:53.202Z,0.50
2022-07-29T21:51:21.733Z,0.40
2022-07-29T21:53:53.035Z,0.50
2022-07-29T21:56:23.622Z,0.80
2022-07-29T21:58:57.845Z,0.50
2022-07-29T22:01:26.878Z,0.70
2022-07-29T22:03:55.471Z,0.70
2022-07-29T22:06:24.261Z,0.77
2022-07-29T22:08:52.703Z,0.70
2022-07-29T22:11:21.604Z,0.60
2022-07-29T22:13:49.987Z,0.80
2022-07-29T22:16:20.163Z,0.90
2022-07-29T22:18:49.350Z,0.77
2022-07-29T22:21:17.850Z,0.70
2022-07-29T22:23:46.335Z,0.70
2022-07-29T22:26:14.870Z,0.55
2022-07-29T22:28:43.974Z,0.60
2022-07-29T22:31:12.591Z,0.88
2022-07-29T22:33:42.816Z,0.70
2022-07-29T22:36:11.681Z,0.98
2022-07-29T22:38:40.129Z,0.82
2022-07-29T22:41:09.093Z,0.80
2022-07-29T22:43:39.861Z,0.70
2022-07-29T22:46:10.534Z,0.70
2022-07-29T22:48:41.903Z,0.70
2022-07-29T22:51:10.503Z,0.82
2022-07-29T22:53:39.122Z,1.00
2022-07-29T22:56:07.762Z,0.88
2022-07-29T22:58:36.277Z,0.82
2022-07-29T23:01:04.921Z,1.10
2022-07-29T23:03:33.507Z,0.98
2022-07-29T23:06:03.460Z,1.20
2022-07-29T23:08:32.020Z,1.20
2022-07-29T23:11:00.927Z,1.00
2022-07-29T23:13:29.375Z,1.13
2022-07-29T23:15:58.211Z,1.30
2022-07-29T23:18:26.899Z,1.30
2022-07-29T23:20:55.565Z,1.13
2022-07-29T23:23:25.432Z,1.30
2022-07-29T23:26:00.865Z,1.10
2022-07-29T23:28:29.404Z,1.25
2022-07-29T23:30:58.057Z,1.52
2022-07-29T23:33:26.545Z,1.13
2022-07-29T23:35:55.470Z,1.10
2022-07-29T23:38:25.586Z,1.38
2022-07-29T23:40:54.095Z,1.02
2022-07-29T23:43:22.943Z,1.80
2022-07-29T23:45:51.693Z,3.53
2022-07-29T23:48:22.221Z,1.38
2022-07-29T23:50:50.879Z,1.38
2022-07-29T23:53:19.461Z,0.98
2022-07-29T23:55:49.417Z,1.40
2022-07-29T23:58:17.890Z,1.60
